Time;durP1;ratioP1;P1;durP2;ratioP2;P2;SDS_P1;SDS_P2;PMS_P1;PMS_P2;Temp;Humidity;BMP_temperature;BMP_pressure;BME280_temperature;BME280_humidity;BME280_pressure;Samples;Min_cycle;Max_cycle;Signal;HPM_P1;HPM_P2
2021/12/01 00:00:06;;;;;;;0.70;0.70;;;7.90;98.70;;;;;;5015903;28;20431;-48
2021/12/01 00:02:32;;;;;;;0.50;0.50;;;7.90;98.70;;;;;;5013428;28;20411;-48
2021/12/01 00:04:57;;;;;;;0.40;0.40;;;7.90;98.80;;;;;;5016697;28;20026;-48
2021/12/01 00:07:23;;;;;;;0.82;0.80;;;7.90;98.70;;;;;;5017631;28;20030;-48
2021/12/01 00:09:48;;;;;;;0.57;0.57;;;7.90;98.80;;;;;;5001193;28;20036;-48
2021/12/01 00:12:14;;;;;;;0.50;0.50;;;7.90;98.80;;;;;;5012228;28;20109;-48
2021/12/01 00:14:40;;;;;;;0.35;0.35;;;7.90;98.70;;;;;;5016710;28;20049;-48
2021/12/01 00:17:10;;;;;;;0.70;0.70;;;7.90;98.70;;;;;;5015584;28;20075;-48
2021/12/01 00:19:36;;;;;;;3.13;0.80;;;7.90;98.70;;;;;;5019222;28;20026;-48
2021/12/01 00:22:02;;;;;;;0.70;0.70;;;7.90;98.80;;;;;;5021698;28;20088;-48
2021/12/01 00:24:27;;;;;;;0.50;0.50;;;7.90;98.80;;;;;;5017074;28;20026;-49
2021/12/01 00:26:53;;;;;;;1.13;0.98;;;7.90;98.80;;;;;;5017509;28;20109;-48
2021/12/01 00:29:19;;;;;;;0.77;0.70;;;7.90;98.80;;;;;;5020226;28;20034;-48
2021/12/01 00:31:44;;;;;;;1.60;0.90;;;7.90;98.70;;;;;;5017685;28;20438;-49
2021/12/01 00:34:11;;;;;;;1.00;0.90;;;7.90;98.90;;;;;;5020398;28;20388;-48
2021/12/01 00:36:36;;;;;;;0.50;0.50;;;7.90;98.70;;;;;;5016975;28;20124;-48
2021/12/01 00:39:02;;;;;;;2.38;1.25;;;7.90;98.70;;;;;;5017042;28;20120;-48
2021/12/01 00:41:28;;;;;;;2.17;0.95;;;7.90;98.70;;;;;;5017687;28;20461;-48
2021/12/01 00:43:54;;;;;;;0.73;0.73;;;7.90;98.80;;;;;;5022701;28;20030;-48
2021/12/01 00:46:23;;;;;;;0.38;0.38;;;7.90;98.80;;;;;;5015663;28;20133;-48
2021/12/01 00:48:49;;;;;;;0.47;0.47;;;7.90;98.80;;;;;;5013774;28;20034;-48
2021/12/01 00:51:16;;;;;;;2.25;0.70;;;7.90;98.80;;;;;;5016157;28;20413;-48
2021/12/01 00:53:42;;;;;;;0.68;0.68;;;7.90;98.80;;;;;;5017648;28;20326;-48
2021/12/01 00:56:08;;;;;;;1.00;0.68;;;7.90;98.80;;;;;;5020473;28;20041;-48
2021/12/01 00:58:34;;;;;;;0.30;0.30;;;7.90;98.80;;;;;;5022341;28;20034;-48
2021/12/01 01:01:01;;;;;;;0.88;0.60;;;7.90;98.80;;;;;;5020376;28;20361;-48
2021/12/01 01:03:28;;;;;;;0.60;0.60;;;7.90;98.80;;;;;;5024117;28;20419;-48
2021/12/01 01:05:54;;;;;;;0.90;0.90;;;7.90;98.90;;;;;;5021505;28;20360;-48
2021/12/01 01:08:20;;;;;;;0.90;0.82;;;7.90;98.90;;;;;;5023093;28;20033;-48
2021/12/01 01:11:09;;;;;;;0.77;0.77;;;7.90;98.90;;;;;;5018910;28;20075;-48
2021/12/01 01:16:24;;;;;;;0.52;0.43;;;7.90;99.10;;;;;;5017918;28;20096;-48
2021/12/01 01:18:57;;;;;;;0.55;0.55;;;7.90;98.90;;;;;;5022581;28;20026;-48
2021/12/01 01:21:25;;;;;;;0.70;0.70;;;7.90;98.90;;;;;;5019041;28;20361;-48
2021/12/01 01:23:53;;;;;;;0.63;0.40;;;7.90;98.90;;;;;;5019970;28;20350;-48
2021/12/01 01:26:20;;;;;;;1.20;0.70;;;7.90;98.80;;;;;;5016814;28;20033;-48
2021/12/01 01:28:47;;;;;;;5.45;1.05;;;8.00;98.80;;;;;;5022675;28;20453;-48
2021/12/01 01:31:13;;;;;;;0.70;0.70;;;7.90;98.80;;;;;;5023401;28;20030;-48
2021/12/01 01:33:39;;;;;;;0.80;0.80;;;8.00;98.90;;;;;;5021588;28;20026;-48
2021/12/01 01:36:05;;;;;;;0.70;0.70;;;7.90;98.90;;;;;;5017446;28;20038;-48
2021/12/01 01:38:32;;;;;;;0.40;0.40;;;7.90;98.90;;;;;;5020500;28;20377;-48
2021/12/01 01:41:02;;;;;;;0.95;0.93;;;8.00;98.90;;;;;;5018735;28;20112;-48
2021/12/01 01:43:28;;;;;;;;;;;7.90;98.90;;;;;;5024760;28;20456;-48
2021/12/01 01:45:55;;;;;;;0.35;0.32;;;8.00;98.90;;;;;;5016228;28;20387;-48
2021/12/01 01:48:36;;;;;;;0.85;0.80;;;8.00;98.90;;;;;;5013433;28;20038;-48
2021/12/01 01:51:05;;;;;;;0.40;0.40;;;8.00;98.90;;;;;;5020631;28;20037;-48
2021/12/01 01:53:34;;;;;;;2.08;0.73;;;7.90;98.90;;;;;;5019887;28;20026;-48
2021/12/01 01:56:02;;;;;;;0.60;0.60;;;7.90;98.80;;;;;;5017111;28;20030;-48
2021/12/01 01:58:28;;;;;;;0.52;0.52;;;7.90;98.90;;;;;;5021885;28;20068;-48
2021/12/01 02:01:06;;;;;;;0.98;0.98;;;7.90;98.90;;;;;;5021902;28;20037;-48
2021/12/01 02:03:53;;;;;;;0.55;0.55;;;7.90;98.90;;;;;;5021051;28;20049;-48
2021/12/01 02:06:23;;;;;;;0.65;0.65;;;8.00;98.90;;;;;;5016268;28;20034;-48
2021/12/01 02:08:50;;;;;;;1.00;0.90;;;8.00;98.90;;;;;;5018796;28;20201;-48
2021/12/01 02:11:17;;;;;;;0.22;0.22;;;7.90;98.90;;;;;;5017446;28;20508;-48
2021/12/01 02:13:44;;;;;;;0.70;0.70;;;7.90;98.90;;;;;;5018224;28;20037;-48
2021/12/01 02:16:11;;;;;;;2.35;0.95;;;7.90;98.90;;;;;;5017117;28;20030;-48
2021/12/01 02:18:39;;;;;;;1.02;0.73;;;7.90;98.90;;;;;;5017180;28;20095;-48
2021/12/01 02:21:26;;;;;;;0.95;0.70;;;8.00;99.00;;;;;;5020363;28;20029;-48
2021/12/01 02:23:53;;;;;;;1.00;0.90;;;8.00;99.00;;;;;;5018761;28;20511;-48
2021/12/01 02:26:21;;;;;;;0.70;0.70;;;7.90;98.90;;;;;;5016324;28;20053;-48
2021/12/01 02:28:49;;;;;;;0.60;0.60;;;8.00;99.00;;;;;;5024254;28;20124;-48
2021/12/01 02:31:15;;;;;;;0.85;0.68;;;7.90;98.90;;;;;;5021512;28;20457;-48
2021/12/01 02:33:41;;;;;;;1.98;1.35;;;8.00;99.10;;;;;;5015703;28;20042;-48
2021/12/01 02:36:11;;;;;;;0.88;0.70;;;8.00;99.00;;;;;;5019121;28;20034;-48
2021/12/01 02:38:37;;;;;;;;;;;7.90;99.00;;;;;;5021494;28;20107;-48
2021/12/01 02:41:03;;;;;;;1.38;1.15;;;8.00;99.00;;;;;;5016216;28;19909;-48
2021/12/01 02:43:30;;;;;;;0.50;0.50;;;8.00;99.10;;;;;;5021876;28;20032;-48
2021/12/01 02:45:56;;;;;;;0.20;0.20;;;8.00;99.10;;;;;;5016417;28;20033;-48
2021/12/01 02:48:23;;;;;;;0.88;0.70;;;8.00;99.10;;;;;;5017320;28;20036;-48
2021/12/01 02:50:50;;;;;;;0.75;0.75;;;8.00;99.00;;;;;;5018007;28;20357;-48
2021/12/01 02:53:19;;;;;;;0.60;0.60;;;8.00;99.10;;;;;;5020369;28;20033;-48
2021/12/01 02:56:05;;;;;;;1.25;0.80;;;8.00;99.10;;;;;;5014217;28;20125;-48
2021/12/01 02:58:32;;;;;;;0.85;0.68;;;7.90;99.00;;;;;;5020381;28;20034;-48
2021/12/01 03:01:02;;;;;;;2.00;0.90;;;8.00;99.10;;;;;;5015988;28;20108;-48
2021/12/01 03:03:28;;;;;;;0.50;0.50;;;7.90;99.00;;;;;;5020484;28;20047;-48
2021/12/01 03:05:56;;;;;;;1.17;0.73;;;8.00;99.10;;;;;;5017734;28;20355;-48
2021/12/01 03:08:22;;;;;;;0.63;0.63;;;7.90;99.10;;;;;;5020111;28;20021;-48
2021/12/01 03:10:53;;;;;;;0.32;0.32;;;8.00;99.10;;;;;;5015228;28;20022;-48
2021/12/01 03:13:21;;;;;;;0.50;0.50;;;8.00;99.10;;;;;;5014821;28;20033;-48
2021/12/01 03:15:47;;;;;;;1.55;0.88;;;8.00;99.10;;;;;;5019247;28;20052;-48
2021/12/01 03:18:14;;;;;;;2.17;1.17;;;8.00;99.10;;;;;;5016131;28;20032;-48
2021/12/01 03:20:40;;;;;;;0.60;0.60;;;8.00;99.20;;;;;;5021531;28;20465;-48
2021/12/01 03:23:06;;;;;;;0.63;0.63;;;7.90;99.00;;;;;;5019921;28;20022;-48
2021/12/01 03:25:33;;;;;;;0.70;0.70;;;8.00;99.10;;;;;;5015188;28;20455;-48
2021/12/01 03:27:59;;;;;;;0.60;0.60;;;7.90;99.00;;;;;;5019177;28;20301;-48
2021/12/01 03:30:24;;;;;;;0.73;0.70;;;8.00;99.10;;;;;;5008973;28;20034;-48
2021/12/01 03:32:51;;;;;;;0.75;0.65;;;8.00;99.10;;;;;;5019435;28;20032;-48
2021/12/01 03:35:17;;;;;;;0.50;0.50;;;8.00;99.20;;;;;;5018558;28;20090;-48
2021/12/01 03:37:45;;;;;;;1.00;0.90;;;8.00;99.20;;;;;;5016405;28;20030;-48
2021/12/01 03:40:12;;;;;;;0.50;0.50;;;8.00;99.10;;;;;;5015239;28;20037;-48
2021/12/01 03:42:38;;;;;;;0.50;0.50;;;8.00;99.10;;;;;;5019244;28;20025;-48
2021/12/01 03:45:06;;;;;;;0.20;0.20;;;8.00;99.20;;;;;;5020017;28;20516;-48
2021/12/01 03:47:32;;;;;;;0.40;0.40;;;8.00;99.20;;;;;;5018480;28;20029;-48
2021/12/01 03:49:58;;;;;;;0.43;0.43;;;8.00;99.20;;;;;;5019611;28;20041;-48
2021/12/01 03:52:24;;;;;;;0.60;0.60;;;8.00;99.20;;;;;;5019779;28;20041;-48
2021/12/01 03:54:51;;;;;;;0.70;0.70;;;8.00;99.10;;;;;;5017298;28;20121;-48
2021/12/01 03:57:17;;;;;;;0.40;0.40;;;8.00;99.20;;;;;;5022034;28;20029;-48
2021/12/01 03:59:43;;;;;;;0.45;0.45;;;8.00;99.20;;;;;;5019741;28;20046;-48
2021/12/01 04:02:09;;;;;;;0.60;0.60;;;8.00;99.30;;;;;;5013825;28;20113;-48
2021/12/01 04:04:35;;;;;;;1.08;0.88;;;8.00;99.20;;;;;;5019767;28;20157;-48
2021/12/01 04:07:01;;;;;;;0.80;0.75;;;8.00;99.20;;;;;;5016997;28;20040;-48
2021/12/01 04:09:28;;;;;;;0.60;0.60;;;8.00;99.20;;;;;;5019082;28;20034;-48
2021/12/01 04:11:53;;;;;;;0.47;0.47;;;8.00;99.20;;;;;;5018812;28;20058;-48
2021/12/01 04:14:19;;;;;;;0.65;0.65;;;8.00;99.30;;;;;;5020533;28;20033;-48
2021/12/01 04:16:45;;;;;;;0.50;0.50;;;8.00;99.30;;;;;;5014290;28;20030;-48
2021/12/01 04:19:10;;;;;;;0.80;0.80;;;8.00;99.20;;;;;;5016440;28;20041;-48
2021/12/01 04:21:37;;;;;;;0.40;0.40;;;8.00;99.30;;;;;;5021365;28;20037;-48
2021/12/01 04:24:03;;;;;;;0.40;0.40;;;8.00;99.30;;;;;;5018834;28;20057;-48
2021/12/01 04:26:32;;;;;;;0.80;0.80;;;8.00;99.60;;;;;;5015091;28;20053;-48
2021/12/01 04:28:58;;;;;;;6.45;0.70;;;8.00;99.30;;;;;;5020488;28;20063;-48
2021/12/01 04:31:24;;;;;;;0.40;0.40;;;8.00;99.30;;;;;;5015960;28;20028;-48
2021/12/01 04:33:50;;;;;;;0.90;0.70;;;8.00;99.40;;;;;;5020278;28;20030;-48
2021/12/01 04:36:17;;;;;;;0.68;0.68;;;8.00;99.30;;;;;;5017485;28;20048;-48
2021/12/01 04:38:43;;;;;;;0.73;0.60;;;8.00;99.30;;;;;;5022498;28;20029;-48
2021/12/01 04:41:12;;;;;;;0.32;0.32;;;8.00;99.30;;;;;;5011710;28;20017;-48
2021/12/01 04:43:38;;;;;;;0.55;0.55;;;8.00;99.40;;;;;;5020445;28;20038;-48
2021/12/01 04:46:05;;;;;;;0.70;0.60;;;8.00;99.30;;;;;;5018155;28;20010;-48
2021/12/01 04:48:31;;;;;;;0.30;0.30;;;8.00;99.40;;;;;;5013224;28;20034;-48
2021/12/01 04:50:57;;;;;;;0.35;0.35;;;8.00;99.30;;;;;;5016615;28;20029;-48
2021/12/01 04:53:25;;;;;;;0.57;0.57;;;8.00;99.30;;;;;;5018401;28;20076;-48
2021/12/01 04:55:52;;;;;;;0.30;0.30;;;8.00;99.40;;;;;;5015211;28;20049;-48
2021/12/01 04:58:18;;;;;;;0.68;0.68;;;8.10;99.40;;;;;;5019497;28;20038;-48
2021/12/01 05:00:44;;;;;;;0.35;0.35;;;8.00;99.30;;;;;;5016431;28;20037;-48
2021/12/01 05:03:10;;;;;;;0.57;0.55;;;8.00;99.30;;;;;;5015950;28;20499;-48
2021/12/01 05:05:35;;;;;;;0.47;0.47;;;8.10;99.40;;;;;;5019445;28;20059;-48
2021/12/01 05:08:01;;;;;;;0.40;0.40;;;8.10;99.40;;;;;;5015634;28;20408;-48
2021/12/01 05:10:27;;;;;;;1.02;0.50;;;8.10;99.30;;;;;;5022363;28;20038;-48
2021/12/01 05:12:52;;;;;;;0.60;0.60;;;8.10;99.30;;;;;;5013942;28;20025;-48
2021/12/01 05:15:18;;;;;;;0.70;0.70;;;8.00;99.30;;;;;;5017026;28;20163;-48
2021/12/01 05:17:43;;;;;;;0.30;0.30;;;8.00;99.30;;;;;;5021451;28;20018;-48
2021/12/01 05:20:11;;;;;;;1.02;0.70;;;8.00;99.40;;;;;;5017686;28;20029;-48
2021/12/01 05:22:37;;;;;;;1.30;0.77;;;8.00;99.30;;;;;;5019229;28;20029;-48
2021/12/01 05:25:03;;;;;;;1.75;0.60;;;8.00;99.40;;;;;;5014208;28;20032;-48
2021/12/01 05:27:29;;;;;;;0.40;0.40;;;8.00;99.30;;;;;;5020610;28;20049;-48
2021/12/01 05:29:55;;;;;;;0.50;0.50;;;8.00;99.40;;;;;;5016902;28;20081;-48
2021/12/01 05:32:21;;;;;;;0.25;0.25;;;8.10;99.40;;;;;;5014610;28;20471;-48
2021/12/01 05:34:47;;;;;;;3.83;0.40;;;8.10;99.40;;;;;;5015906;28;20038;-48
2021/12/01 05:37:12;;;;;;;0.50;0.50;;;8.10;99.40;;;;;;5020286;28;20024;-48
2021/12/01 05:39:41;;;;;;;0.40;0.40;;;8.10;99.40;;;;;;5020062;28;20072;-48
2021/12/01 05:42:07;;;;;;;0.68;0.68;;;8.10;99.40;;;;;;5017501;28;20041;-48
2021/12/01 05:44:34;;;;;;;0.50;0.50;;;8.10;99.40;;;;;;5021928;28;20034;-48
2021/12/01 05:47:01;;;;;;;1.00;0.85;;;8.10;99.40;;;;;;5013468;28;20037;-48
2021/12/01 05:49:27;;;;;;;1.55;0.80;;;8.00;99.30;;;;;;5015300;28;20037;-48
2021/12/01 05:51:53;;;;;;;0.60;0.60;;;8.00;99.50;;;;;;5018082;28;20206;-48
2021/12/01 05:54:19;;;;;;;0.80;0.80;;;8.10;99.40;;;;;;5024836;28;20068;-48
2021/12/01 05:56:44;;;;;;;1.83;0.60;;;8.10;99.40;;;;;;5014953;28;20116;-48
2021/12/01 05:59:10;;;;;;;2.15;0.60;;;8.10;99.40;;;;;;5015723;28;20841;-48
2021/12/01 06:01:36;;;;;;;0.55;0.55;;;8.10;99.40;;;;;;5019669;28;20404;-48
2021/12/01 06:04:02;;;;;;;0.32;0.32;;;8.10;99.40;;;;;;5021593;28;20358;-48
2021/12/01 06:06:28;;;;;;;0.90;0.90;;;8.10;99.50;;;;;;5018613;28;20369;-48
2021/12/01 06:08:55;;;;;;;0.55;0.52;;;8.10;99.60;;;;;;5019011;28;20024;-48
2021/12/01 06:11:21;;;;;;;0.28;0.28;;;8.10;99.40;;;;;;5020050;28;20368;-49
2021/12/01 06:13:48;;;;;;;0.55;0.55;;;8.10;99.40;;;;;;5023912;28;20025;-48
2021/12/01 06:16:14;;;;;;;0.40;0.40;;;8.10;99.40;;;;;;5021548;28;20043;-48
2021/12/01 06:18:40;;;;;;;1.00;0.50;;;8.10;99.40;;;;;;5024913;28;20021;-50
2021/12/01 06:21:05;;;;;;;0.93;0.65;;;8.10;99.50;;;;;;5022879;28;20033;-48
2021/12/01 06:23:31;;;;;;;0.95;0.75;;;8.10;99.10;;;;;;5024568;28;20026;-48
2021/12/01 06:25:56;;;;;;;0.30;0.30;;;8.10;98.90;;;;;;5015825;28;20072;-48
2021/12/01 06:28:22;;;;;;;0.50;0.50;;;8.10;98.90;;;;;;5015839;28;20428;-47
2021/12/01 06:30:48;;;;;;;0.50;0.50;;;8.10;99.00;;;;;;5019579;28;20428;-48
2021/12/01 06:33:13;;;;;;;0.50;0.50;;;8.10;99.00;;;;;;5023238;28;20018;-48
2021/12/01 06:35:44;;;;;;;0.88;0.60;;;8.10;99.00;;;;;;5021576;28;20076;-48
2021/12/01 06:38:10;;;;;;;6.97;1.00;;;8.10;99.00;;;;;;5021913;28;20416;-48
2021/12/01 06:40:36;;;;;;;1.40;0.70;;;8.00;99.00;;;;;;5021424;28;20056;-48
2021/12/01 06:43:01;;;;;;;0.30;0.30;;;8.10;99.10;;;;;;5020542;28;20057;-48
2021/12/01 06:45:27;;;;;;;0.50;0.50;;;8.10;99.10;;;;;;5020369;28;20096;-48
2021/12/01 06:47:52;;;;;;;0.93;0.70;;;8.10;99.10;;;;;;5019884;28;20025;-48
2021/12/01 06:50:18;;;;;;;1.83;0.80;;;8.10;99.10;;;;;;5021101;28;20438;-48
2021/12/01 06:52:44;;;;;;;0.50;0.50;;;8.00;99.10;;;;;;5022747;28;20025;-48
2021/12/01 06:55:10;;;;;;;1.15;0.90;;;8.10;99.20;;;;;;5021455;28;20418;-48
2021/12/01 06:57:36;;;;;;;0.50;0.50;;;8.10;99.10;;;;;;5019334;28;20068;-48
2021/12/01 07:00:06;;;;;;;2.20;1.05;;;8.00;99.10;;;;;;5023475;28;20096;-48
2021/12/01 07:02:32;;;;;;;1.85;0.77;;;8.00;99.20;;;;;;5020710;28;20033;-48
2021/12/01 07:04:57;;;;;;;1.15;0.90;;;8.00;99.20;;;;;;5023149;28;20034;-48
2021/12/01 07:07:23;;;;;;;1.20;0.80;;;8.00;99.20;;;;;;5020911;28;20087;-48
2021/12/01 07:09:50;;;;;;;0.60;0.60;;;8.00;99.20;;;;;;5022231;28;20043;-48
2021/12/01 07:12:17;;;;;;;0.57;0.52;;;8.10;99.30;;;;;;5020428;28;20029;-48
2021/12/01 07:14:42;;;;;;;0.80;0.60;;;8.10;99.30;;;;;;5021588;28;20109;-48
2021/12/01 07:17:08;;;;;;;0.40;0.40;;;8.10;99.30;;;;;;5022727;28;20120;-48
2021/12/01 07:19:34;;;;;;;0.50;0.50;;;8.10;99.30;;;;;;5019960;28;20022;-48
2021/12/01 07:22:00;;;;;;;0.63;0.50;;;8.10;99.30;;;;;;5024300;28;20041;-48
2021/12/01 07:24:25;;;;;;;0.55;0.40;;;8.10;99.30;;;;;;5023033;28;20026;-48
2021/12/01 07:26:52;;;;;;;0.82;0.80;;;8.10;99.30;;;;;;5015469;28;20485;-48
2021/12/01 07:29:18;;;;;;;2.22;0.75;;;8.10;99.20;;;;;;5021554;28;20026;-48
2021/12/01 07:31:44;;;;;;;0.55;0.55;;;8.10;99.30;;;;;;5021662;28;20036;-47
2021/12/01 07:34:10;;;;;;;0.30;0.30;;;8.10;99.20;;;;;;5022210;28;20475;-48
2021/12/01 07:36:35;;;;;;;1.02;0.65;;;8.10;99.20;;;;;;5019610;28;20022;-47
2021/12/01 07:39:02;;;;;;;0.40;0.40;;;8.10;99.20;;;;;;5023237;28;20021;-47
2021/12/01 07:41:27;;;;;;;1.52;0.73;;;8.10;99.20;;;;;;5021739;28;20037;-47
2021/12/01 07:43:53;;;;;;;0.28;0.28;;;8.10;99.20;;;;;;5019653;28;20028;-47
2021/12/01 07:46:19;;;;;;;0.43;0.43;;;8.10;99.20;;;;;;5020018;28;20083;-47
2021/12/01 07:48:44;;;;;;;0.30;0.30;;;8.10;99.20;;;;;;5019676;28;20092;-48
2021/12/01 07:51:10;;;;;;;0.45;0.45;;;8.10;99.20;;;;;;5021049;28;20099;-48
2021/12/01 07:53:36;;;;;;;1.33;0.60;;;8.10;99.20;;;;;;5022228;28;20108;-47
2021/12/01 07:56:03;;;;;;;0.30;0.30;;;8.10;99.50;;;;;;5019354;28;20461;-47
2021/12/01 07:58:29;;;;;;;0.40;0.40;;;8.10;99.20;;;;;;5014100;28;20120;-48
2021/12/01 08:00:54;;;;;;;0.20;0.20;;;8.10;99.20;;;;;;5022578;28;20439;-48
2021/12/01 08:03:20;;;;;;;0.65;0.57;;;8.10;99.10;;;;;;5019932;28;20046;-48
2021/12/01 08:05:46;;;;;;;0.40;0.40;;;8.10;99.20;;;;;;5021451;28;20033;-48
2021/12/01 08:08:11;;;;;;;0.50;0.50;;;8.10;99.10;;;;;;5020587;28;20101;-48
2021/12/01 08:10:37;;;;;;;6.53;0.80;;;8.10;99.10;;;;;;5021235;28;20033;-48
2021/12/01 08:13:04;;;;;;;0.43;0.40;;;8.20;99.10;;;;;;5016255;28;20346;-48
2021/12/01 08:15:30;;;;;;;0.45;0.45;;;8.20;99.00;;;;;;5019373;28;20037;-48
2021/12/01 08:17:56;;;;;;;0.45;0.45;;;8.20;98.90;;;;;;5022858;28;20396;-48
2021/12/01 08:20:21;;;;;;;0.30;0.30;;;8.20;98.90;;;;;;5019593;28;20339;-48
2021/12/01 08:22:47;;;;;;;1.00;0.70;;;8.20;99.00;;;;;;5021801;28;20029;-48
2021/12/01 08:25:14;;;;;;;0.55;0.55;;;8.20;98.90;;;;;;5019403;28;20029;-48
2021/12/01 08:27:40;;;;;;;0.80;0.73;;;8.20;99.00;;;;;;5015776;28;20096;-48
2021/12/01 08:30:07;;;;;;;0.30;0.30;;;8.20;99.10;;;;;;5021542;28;20449;-48
2021/12/01 08:32:33;;;;;;;0.40;0.40;;;8.20;99.50;;;;;;5019781;28;20025;-47
2021/12/01 08:34:58;;;;;;;1.02;0.82;;;8.20;99.10;;;;;;5022010;28;20057;-48
2021/12/01 08:37:24;;;;;;;0.30;0.30;;;8.20;99.00;;;;;;5018907;28;20446;-47
2021/12/01 08:39:50;;;;;;;0.85;0.85;;;8.30;99.00;;;;;;5022579;28;20377;-48
2021/12/01 08:42:17;;;;;;;0.50;0.50;;;8.30;99.00;;;;;;5016442;28;20030;-48
2021/12/01 08:44:45;;;;;;;0.50;0.45;;;8.30;99.00;;;;;;5020343;28;20070;-48
2021/12/01 08:47:12;;;;;;;2.00;0.70;;;8.30;98.90;;;;;;5019915;28;20100;-48
2021/12/01 08:49:38;;;;;;;0.30;0.30;;;8.30;98.90;;;;;;5017940;28;20365;-48
2021/12/01 08:52:04;;;;;;;0.63;0.63;;;8.30;99.00;;;;;;5022685;28;20022;-48
2021/12/01 08:54:30;;;;;;;1.25;0.80;;;8.30;99.00;;;;;;5018765;28;20404;-47
2021/12/01 08:56:57;;;;;;;0.30;0.30;;;8.40;98.90;;;;;;5018769;28;20040;-48
2021/12/01 08:59:23;;;;;;;0.50;0.50;;;8.30;99.00;;;;;;5018479;28;20037;-48
2021/12/01 09:01:49;;;;;;;1.85;1.10;;;8.30;99.10;;;;;;5020623;28;20467;-48
2021/12/01 09:04:14;;;;;;;0.98;0.93;;;8.30;99.10;;;;;;5020045;28;20030;-48
2021/12/01 09:06:40;;;;;;;1.95;0.70;;;8.40;99.30;;;;;;5020637;28;20033;-48
2021/12/01 09:09:05;;;;;;;0.40;0.30;;;8.40;99.20;;;;;;5019221;28;20080;-48
2021/12/01 09:11:32;;;;;;;0.60;0.60;;;8.40;99.40;;;;;;5022564;28;20144;-48
2021/12/01 09:13:58;;;;;;;0.90;0.90;;;8.40;99.10;;;;;;5017803;28;20121;-48
2021/12/01 09:16:25;;;;;;;3.05;1.27;;;8.40;99.20;;;;;;5025081;28;20403;-48
2021/12/01 09:18:51;;;;;;;7.40;1.85;;;8.40;99.40;;;;;;5023217;28;20018;-47
2021/12/01 09:21:18;;;;;;;1.13;0.77;;;8.40;99.80;;;;;;5024699;28;20048;-48
2021/12/01 09:23:44;;;;;;;0.60;0.60;;;8.50;99.90;;;;;;5024785;28;20026;-47
2021/12/01 09:26:10;;;;;;;0.88;0.88;;;8.50;99.90;;;;;;5022558;28;20096;-48
2021/12/01 09:28:36;;;;;;;0.22;0.22;;;8.50;99.90;;;;;;5023324;28;20038;-47
2021/12/01 09:31:01;;;;;;;0.40;0.40;;;8.50;99.90;;;;;;5022295;28;20053;-48
2021/12/01 09:33:29;;;;;;;0.50;0.50;;;8.60;99.90;;;;;;5025454;28;20121;-48
2021/12/01 09:35:55;;;;;;;0.60;0.60;;;8.60;99.90;;;;;;5022420;28;20472;-48
2021/12/01 09:38:21;;;;;;;0.98;0.93;;;8.70;99.90;;;;;;5023949;28;20029;-48
2021/12/01 09:40:53;;;;;;;0.70;0.70;;;8.70;99.90;;;;;;5024022;28;20366;-48
2021/12/01 09:43:22;;;;;;;0.40;0.40;;;8.60;99.90;;;;;;5021087;28;20030;-48
2021/12/01 09:45:48;;;;;;;0.50;0.50;;;8.70;99.90;;;;;;5021240;28;20121;-47
2021/12/01 09:48:14;;;;;;;0.30;0.30;;;8.70;99.90;;;;;;5020461;28;20041;-48
2021/12/01 09:50:40;;;;;;;1.73;0.47;;;8.70;99.90;;;;;;5023283;28;20057;-47
2021/12/01 09:53:06;;;;;;;1.10;1.00;;;8.80;99.90;;;;;;5023969;28;20420;-48
2021/12/01 09:55:32;;;;;;;0.88;0.88;;;8.80;99.90;;;;;;5023522;28;20126;-48
2021/12/01 09:58:11;;;;;;;0.45;0.45;;;8.80;99.90;;;;;;5021778;28;20034;-48
2021/12/01 10:00:40;;;;;;;0.68;0.68;;;8.80;99.90;;;;;;5022219;28;20034;-48
2021/12/01 10:03:06;;;;;;;3.72;1.05;;;8.80;99.90;;;;;;5023659;28;20056;-48
2021/12/01 10:06:00;;;;;;;0.60;0.60;;;8.80;99.90;;;;;;5023360;28;20445;-47
2021/12/01 10:08:29;;;;;;;0.65;0.65;;;8.80;99.90;;;;;;5024773;28;20026;-48
2021/12/01 10:10:56;;;;;;;0.90;0.90;;;8.80;99.90;;;;;;5021373;28;20113;-48
2021/12/01 10:13:31;;;;;;;0.30;0.30;;;8.80;99.90;;;;;;5019361;28;20074;-48
2021/12/01 10:15:59;;;;;;;0.68;0.68;;;8.90;99.90;;;;;;5023284;28;20045;-48
2021/12/01 10:18:26;;;;;;;0.65;0.65;;;8.90;99.90;;;;;;5021519;28;20022;-48
2021/12/01 10:21:17;;;;;;;0.40;0.40;;;9.00;99.90;;;;;;5024920;28;20043;-48
2021/12/01 10:23:48;;;;;;;0.47;0.47;;;9.00;99.90;;;;;;5024375;28;20029;-48
2021/12/01 10:26:16;;;;;;;0.70;0.70;;;9.00;99.90;;;;;;5020598;28;20033;-48
2021/12/01 10:28:48;;;;;;;0.63;0.40;;;8.90;99.90;;;;;;5017416;28;20018;-48
2021/12/01 10:31:15;;;;;;;0.52;0.52;;;8.90;99.90;;;;;;5024159;28;20049;-49
2021/12/01 10:33:41;;;;;;;0.63;0.63;;;9.00;99.90;;;;;;5021266;28;20058;-48
2021/12/01 10:36:09;;;;;;;1.63;1.05;;;9.00;99.90;;;;;;5022972;28;20420;-48
2021/12/01 10:38:39;;;;;;;2.20;1.00;;;9.00;99.90;;;;;;5022386;28;20038;-48
2021/12/01 10:41:08;;;;;;;0.50;0.50;;;9.00;99.90;;;;;;5020497;28;20319;-48
2021/12/01 10:43:36;;;;;;;0.70;0.70;;;9.10;99.90;;;;;;5018654;28;20044;-49
2021/12/01 10:46:10;;;;;;;1.83;1.23;;;9.10;99.90;;;;;;5019845;28;20132;-48
2021/12/01 10:48:36;;;;;;;1.45;0.93;;;9.10;99.90;;;;;;5021180;28;20041;-48
2021/12/01 10:51:02;;;;;;;1.20;0.45;;;9.10;99.90;;;;;;5021733;28;20495;-48
2021/12/01 10:53:29;;;;;;;0.93;0.93;;;9.10;99.90;;;;;;5023387;28;20040;-48
2021/12/01 10:55:58;;;;;;;0.98;0.85;;;9.10;99.90;;;;;;5020008;28;20643;-48
2021/12/01 10:58:40;;;;;;;0.50;0.50;;;9.20;99.90;;;;;;5017824;28;20032;-48
2021/12/01 11:01:22;;;;;;;6.07;1.88;;;9.20;99.90;;;;;;5023357;28;20119;-48
2021/12/01 11:03:48;;;;;;;0.50;0.50;;;9.20;99.90;;;;;;5022481;28;20380;-48
2021/12/01 11:06:20;;;;;;;0.85;0.80;;;9.20;99.90;;;;;;5020505;28;20036;-48
2021/12/01 11:08:58;;;;;;;0.60;0.60;;;9.20;99.90;;;;;;5024041;28;20456;-48
2021/12/01 11:11:33;;;;;;;5.47;2.35;;;9.20;99.90;;;;;;5022146;28;20034;-48
2021/12/01 11:14:16;;;;;;;0.65;0.55;;;9.20;99.90;;;;;;5017366;28;20118;-48
2021/12/01 11:16:44;;;;;;;1.48;1.30;;;9.10;99.90;;;;;;5020852;28;20042;-48
2021/12/01 11:19:10;;;;;;;3.45;1.60;;;9.20;99.90;;;;;;5023475;28;20053;-48
2021/12/01 11:21:38;;;;;;;2.78;1.80;;;9.10;99.90;;;;;;5020158;28;20335;-48
2021/12/01 11:24:12;;;;;;;3.25;1.90;;;9.10;99.90;;;;;;5023018;28;20026;-48
2021/12/01 11:26:42;;;;;;;1.10;1.02;;;9.10;99.90;;;;;;5021452;28;20118;-48
2021/12/01 11:29:12;;;;;;;2.35;1.88;;;9.10;99.90;;;;;;5017924;28;20665;-48
2021/12/01 11:31:43;;;;;;;2.73;1.67;;;9.10;99.90;;;;;;5020318;28;20446;-49
2021/12/01 11:34:12;;;;;;;0.40;0.40;;;9.10;99.90;;;;;;5021500;28;20402;-48
2021/12/01 11:36:41;;;;;;;0.90;0.80;;;9.10;99.90;;;;;;5021088;28;20033;-48
2021/12/01 11:39:10;;;;;;;0.75;0.75;;;9.10;99.90;;;;;;5020156;28;20033;-48
2021/12/01 11:41:44;;;;;;;1.65;1.48;;;9.10;99.90;;;;;;5020540;28;20025;-48
2021/12/01 11:44:14;;;;;;;0.65;0.65;;;9.10;99.90;;;;;;5019282;28;20113;-48
2021/12/01 11:46:40;;;;;;;0.60;0.60;;;9.10;99.90;;;;;;5022138;28;20072;-49
2021/12/01 11:49:15;;;;;;;1.75;1.13;;;9.10;99.90;;;;;;5015499;28;20026;-48
2021/12/01 11:51:46;;;;;;;0.80;0.70;;;9.10;99.90;;;;;;5021882;28;20075;-48
2021/12/01 11:54:20;;;;;;;0.40;0.40;;;9.10;99.90;;;;;;5022141;28;20037;-48
2021/12/01 11:56:53;;;;;;;0.73;0.73;;;9.10;99.90;;;;;;5018923;28;20657;-48
2021/12/01 11:59:20;;;;;;;0.52;0.52;;;9.10;99.90;;;;;;5019860;28;20087;-48
2021/12/01 12:02:09;;;;;;;0.73;0.60;;;9.10;99.90;;;;;;5021280;28;20037;-48
2021/12/01 12:04:38;;;;;;;1.67;0.70;;;9.10;99.90;;;;;;5006605;28;20038;-48
2021/12/01 12:07:07;;;;;;;1.35;0.82;;;9.10;99.90;;;;;;5018840;28;20087;-48
2021/12/01 12:09:34;;;;;;;1.00;0.90;;;9.10;99.90;;;;;;5018369;28;20037;-48
2021/12/01 12:12:00;;;;;;;0.60;0.60;;;9.10;99.90;;;;;;5021604;28;20026;-48
2021/12/01 12:14:26;;;;;;;0.52;0.52;;;9.10;99.90;;;;;;5014078;28;20033;-48
2021/12/01 12:17:10;;;;;;;0.30;0.30;;;9.10;99.90;;;;;;5019907;28;20373;-48
2021/12/01 12:19:49;;;;;;;0.40;0.40;;;9.10;99.90;;;;;;5019781;28;20491;-48
2021/12/01 12:22:22;;;;;;;0.50;0.50;;;9.10;99.90;;;;;;5019718;28;20461;-48
2021/12/01 12:24:52;;;;;;;0.93;0.60;;;9.10;99.90;;;;;;5019570;28;20408;-48
2021/12/01 12:27:38;;;;;;;;;;;9.10;99.90;;;;;;5020792;28;20040;-48
2021/12/01 12:30:08;;;;;;;0.80;0.77;;;9.10;99.90;;;;;;5015056;28;19909;-47
2021/12/01 12:32:34;;;;;;;2.42;1.20;;;9.10;99.90;;;;;;5020740;28;20061;-48
2021/12/01 12:35:08;;;;;;;0.93;0.85;;;9.10;99.90;;;;;;5021300;28;20021;-48
2021/12/01 12:37:35;;;;;;;0.80;0.80;;;9.10;99.90;;;;;;5019387;28;20033;-48
2021/12/01 12:40:07;;;;;;;1.75;1.30;;;9.10;99.90;;;;;;5022057;28;20034;-48
2021/12/01 12:42:33;;;;;;;0.93;0.90;;;9.10;99.90;;;;;;5021135;28;20030;-48
2021/12/01 12:44:58;;;;;;;0.68;0.68;;;9.10;99.90;;;;;;5016667;28;20099;-48
2021/12/01 12:47:44;;;;;;;3.85;1.27;;;9.10;99.90;;;;;;5019169;28;20036;-48
2021/12/01 12:50:23;;;;;;;2.05;1.00;;;9.10;99.90;;;;;;5024799;28;20033;-48
2021/12/01 12:52:52;;;;;;;0.68;0.68;;;9.10;99.90;;;;;;5023900;28;20034;-48
2021/12/01 12:55:24;;;;;;;0.50;0.50;;;9.10;99.90;;;;;;5024182;28;20048;-48
2021/12/01 12:58:02;;;;;;;0.50;0.50;;;9.10;99.90;;;;;;5025881;28;20212;-48
2021/12/01 13:00:31;;;;;;;0.93;0.80;;;9.10;99.90;;;;;;5019861;28;20052;-48
2021/12/01 13:03:17;;;;;;;0.32;0.32;;;9.10;99.80;;;;;;5024807;28;20030;-48